createdAt,value
2022-11-24T00:01:31.548Z,99816.60
2022-11-24T00:06:36.442Z,99825.40
2022-11-24T00:11:39.748Z,99826.00
2022-11-24T00:16:43.028Z,99825.80
2022-11-24T00:21:46.332Z,99835.00
2022-11-24T00:26:49.552Z,99837.80
2022-11-24T00:31:52.810Z,99842.40
2022-11-24T00:36:55.985Z,99843.80
2022-11-24T00:41:59.169Z,99839.40
2022-11-24T00:47:02.535Z,99837.00
2022-11-24T00:52:05.920Z,99833.80
2022-11-24T00:57:09.158Z,99832.40
2022-11-24T01:02:12.447Z,99839.40
2022-11-24T01:07:15.769Z,99836.20
2022-11-24T01:12:19.046Z,99821.80
2022-11-24T01:17:22.334Z,99809.60
2022-11-24T01:22:27.670Z,99815.20
2022-11-24T01:27:30.877Z,99822.80
2022-11-24T01:32:36.491Z,99815.40
2022-11-24T01:37:39.744Z,99802.40
2022-11-24T01:42:52.353Z,99807.20
2022-11-24T01:47:56.395Z,99807.80
2022-11-24T01:53:00.145Z,99821.80
2022-11-24T01:58:17.663Z,99818.60
2022-11-24T02:03:31.475Z,99821.00
2022-11-24T02:09:33.013Z,99830.60
2022-11-24T02:14:39.594Z,99840.60
2022-11-24T02:19:58.747Z,99839.60
2022-11-24T02:25:12.136Z,99839.60
2022-11-24T02:30:16.351Z,99822.80
2022-11-24T02:35:20.445Z,99808.40
2022-11-24T02:40:28.903Z,99834.00
2022-11-24T02:45:32.251Z,99825.80
2022-11-24T02:50:35.503Z,99827.00
2022-11-24T02:55:38.730Z,99820.00
2022-11-24T03:00:42.222Z,99807.00
2022-11-24T03:05:45.612Z,99800.20
2022-11-24T03:10:49.529Z,99845.60
2022-11-24T03:15:52.805Z,99828.00
2022-11-24T03:21:00.381Z,99827.60
2022-11-24T03:26:11.876Z,99840.00
2022-11-24T03:31:15.456Z,99828.80
2022-11-24T03:36:19.536Z,99821.80
2022-11-24T03:41:22.731Z,99816.00
2022-11-24T03:46:25.986Z,99824.60
2022-11-24T03:51:29.269Z,99833.00
2022-11-24T03:56:32.447Z,99824.00
2022-11-24T04:01:35.722Z,99821.40
2022-11-24T04:06:40.709Z,99836.20
2022-11-24T04:12:02.826Z,99846.40
2022-11-24T04:17:06.003Z,99846.00
2022-11-24T04:22:09.355Z,99849.80
2022-11-24T04:27:12.787Z,99853.20
2022-11-24T04:32:15.983Z,99842.60
2022-11-24T04:37:19.655Z,99852.80
2022-11-24T04:42:22.989Z,99847.40
2022-11-24T04:47:27.372Z,99843.40
2022-11-24T04:52:30.651Z,99848.00
2022-11-24T04:57:33.882Z,99852.40
2022-11-24T05:02:37.283Z,99861.00
2022-11-24T05:07:40.565Z,99854.00
2022-11-24T05:12:48.425Z,99863.60
2022-11-24T05:17:54.792Z,99868.60
2022-11-24T05:23:03.337Z,99869.40
2022-11-24T05:28:12.129Z,99870.80
2022-11-24T05:33:23.197Z,99877.40
2022-11-24T05:38:27.121Z,99878.60
2022-11-24T05:43:30.748Z,99882.40
2022-11-24T05:48:33.882Z,99882.00
2022-11-24T05:53:36.855Z,99876.40
2022-11-24T05:58:39.757Z,99887.60
2022-11-24T06:03:42.662Z,99890.20
2022-11-24T06:08:45.596Z,99885.80
2022-11-24T06:13:48.827Z,99884.80
2022-11-24T06:18:51.980Z,99905.00
2022-11-24T06:23:55.033Z,99900.60
2022-11-24T06:28:57.975Z,99917.60
2022-11-24T06:34:01.370Z,99926.00
2022-11-24T06:39:06.277Z,99932.40
2022-11-24T06:44:09.414Z,99943.80
2022-11-24T06:49:12.451Z,99945.20
2022-11-24T06:54:21.396Z,99941.40
2022-11-24T06:59:24.887Z,99931.40
2022-11-24T07:04:27.901Z,99933.00
2022-11-24T07:09:30.806Z,99929.20
2022-11-24T07:14:34.025Z,99930.20
2022-11-24T07:19:37.154Z,99932.40
2022-11-24T07:24:40.120Z,99938.80
2022-11-24T07:29:43.245Z,99961.80
2022-11-24T07:34:46.257Z,99969.60
2022-11-24T07:39:49.195Z,99972.60
2022-11-24T07:44:52.344Z,99966.80
2022-11-24T07:49:55.429Z,99971.00
2022-11-24T07:54:58.447Z,99965.40
2022-11-24T08:00:01.546Z,99967.80
2022-11-24T08:05:06.226Z,99959.60
2022-11-24T08:10:09.555Z,99950.60
2022-11-24T08:15:12.721Z,99953.40
2022-11-24T08:20:15.926Z,99950.80
2022-11-24T08:25:20.222Z,99964.60
2022-11-24T08:30:23.814Z,99975.40
2022-11-24T08:35:28.818Z,99978.60
2022-11-24T08:40:33.301Z,99975.20
2022-11-24T08:45:41.373Z,99977.40
2022-11-24T08:50:45.511Z,99988.20
2022-11-24T08:55:48.995Z,99986.80
2022-11-24T09:00:52.164Z,99986.00
2022-11-24T09:05:55.083Z,99986.20
2022-11-24T09:11:06.982Z,99979.20
2022-11-24T09:16:14.411Z,99972.40
2022-11-24T09:21:23.482Z,99959.80
2022-11-24T09:26:31.128Z,99955.80
2022-11-24T09:31:37.422Z,99966.20
2022-11-24T09:36:40.681Z,99974.60
2022-11-24T09:41:58.566Z,99980.40
2022-11-24T09:47:36.287Z,99985.80
2022-11-24T09:53:16.982Z,99993.40
2022-11-24T09:58:29.193Z,99994.40
2022-11-24T10:03:37.357Z,99996.60
2022-11-24T10:09:00.214Z,99993.00
2022-11-24T10:14:26.493Z,99986.00
2022-11-24T10:20:12.807Z,100004.60
2022-11-24T10:25:25.038Z,99995.40
2022-11-24T10:30:28.329Z,99998.80
2022-11-24T10:35:41.726Z,99988.40
2022-11-24T10:40:58.657Z,99998.40
2022-11-24T10:46:22.117Z,99989.40
2022-11-24T10:51:57.114Z,99985.40
2022-11-24T10:57:00.035Z,99982.20
2022-11-24T11:02:34.746Z,99983.80
2022-11-24T11:07:37.942Z,99987.20
2022-11-24T11:12:45.063Z,99990.60
2022-11-24T11:17:52.539Z,99988.00
2022-11-24T11:22:58.658Z,99992.80
2022-11-24T11:28:30.185Z,99997.80
2022-11-24T11:39:00.164Z,99996.40
2022-11-24T11:44:21.395Z,99999.00
2022-11-24T11:49:25.031Z,99996.00
2022-11-24T11:55:14.225Z,99995.80
2022-11-24T12:00:22.418Z,100008.20
2022-11-24T12:06:01.865Z,100006.80
2022-11-24T12:11:27.021Z,100015.60
2022-11-24T12:17:14.785Z,100005.80
2022-11-24T12:22:33.079Z,100006.20
2022-11-24T12:28:46.912Z,100007.20
2022-11-24T12:34:25.629Z,100001.20
2022-11-24T12:40:01.836Z,100005.40
2022-11-24T12:45:15.271Z,100002.00
2022-11-24T12:50:22.489Z,99996.80
2022-11-24T12:55:27.811Z,100004.40
2022-11-24T13:00:39.413Z,99997.60
2022-11-24T13:06:03.705Z,99995.40
2022-11-24T13:11:21.941Z,99997.80
2022-11-24T13:16:36.287Z,100004.00
2022-11-24T13:21:45.614Z,100005.00
2022-11-24T13:26:49.977Z,99995.60
2022-11-24T13:31:55.319Z,100004.40
2022-11-24T13:36:58.659Z,100003.80
2022-11-24T13:42:41.855Z,100000.40
2022-11-24T13:47:47.330Z,100002.00
2022-11-24T13:53:15.751Z,100007.60
2022-11-24T13:58:29.874Z,100008.20
2022-11-24T14:04:30.433Z,100017.00
2022-11-24T14:09:51.991Z,100024.80
2022-11-24T14:15:23.882Z,100024.60
2022-11-24T14:20:28.784Z,100036.80
2022-11-24T14:25:32.607Z,100046.60
2022-11-24T14:30:35.747Z,100057.80
2022-11-24T14:35:46.189Z,100063.80
2022-11-24T14:40:53.543Z,100070.60
2022-11-24T14:46:07.347Z,100065.60
2022-11-24T14:51:30.663Z,100066.20
2022-11-24T14:56:38.296Z,100072.40
2022-11-24T15:01:41.348Z,100065.40
2022-11-24T15:06:49.673Z,100075.40
2022-11-24T15:11:55.302Z,100072.60
2022-11-24T15:17:01.019Z,100080.40
2022-11-24T15:22:27.526Z,100087.60
2022-11-24T15:27:30.753Z,100083.00
2022-11-24T15:32:33.771Z,100083.60
2022-11-24T15:37:36.771Z,100090.20
2022-11-24T15:42:40.585Z,100090.00
2022-11-24T15:47:43.580Z,100086.60
2022-11-24T15:52:48.881Z,100085.80
2022-11-24T15:57:51.759Z,100087.20
2022-11-24T16:02:54.702Z,100089.80
2022-11-24T16:07:57.722Z,100088.20
2022-11-24T16:13:00.719Z,100087.40
2022-11-24T16:18:05.755Z,100089.40
2022-11-24T16:23:08.711Z,100086.20
2022-11-24T16:28:11.611Z,100096.20
2022-11-24T16:33:14.510Z,100092.40
2022-11-24T16:38:20.163Z,100093.60
2022-11-24T16:43:24.628Z,100103.20
2022-11-24T16:48:27.916Z,100105.60
2022-11-24T16:53:31.070Z,100103.40
2022-11-24T16:58:37.933Z,100106.20
2022-11-24T17:03:42.074Z,100105.00
2022-11-24T17:08:47.064Z,100107.80
2022-11-24T17:13:50.805Z,100112.60
2022-11-24T17:18:54.871Z,100122.80
2022-11-24T17:24:01.281Z,100128.00
2022-11-24T17:29:04.475Z,100139.40
2022-11-24T17:34:10.994Z,100138.00
2022-11-24T17:39:14.073Z,100146.20
2022-11-24T17:44:17.094Z,100145.40
2022-11-24T17:49:21.277Z,100153.00
2022-11-24T17:54:45.304Z,100160.40
2022-11-24T17:59:47.449Z,100171.00
2022-11-24T18:04:50.964Z,100173.20
2022-11-24T18:09:53.984Z,100169.60
2022-11-24T18:14:57.026Z,100166.20
2022-11-24T18:19:59.943Z,100175.20
2022-11-24T18:25:02.865Z,100175.60
2022-11-24T18:30:07.015Z,100184.20
2022-11-24T18:35:10.513Z,100183.00
2022-11-24T18:40:13.628Z,100185.40
2022-11-24T18:45:16.518Z,100188.20
2022-11-24T18:50:19.840Z,100193.20
2022-11-24T18:55:22.814Z,100194.80
2022-11-24T19:00:25.737Z,100194.80
2022-11-24T19:05:28.815Z,100194.00
2022-11-24T19:10:39.360Z,100190.20
2022-11-24T19:15:42.246Z,100192.40
2022-11-24T19:20:45.473Z,100181.20
2022-11-24T19:25:48.416Z,100185.00
2022-11-24T19:30:51.643Z,100184.80
2022-11-24T19:36:08.073Z,100191.40
2022-11-24T19:41:14.340Z,100202.40
2022-11-24T19:46:19.443Z,100203.40
2022-11-24T19:51:26.751Z,100213.00
2022-11-24T19:56:34.349Z,100214.20
2022-11-24T20:01:40.533Z,100220.00
2022-11-24T20:06:46.994Z,100223.00
2022-11-24T20:11:50.057Z,100219.60
2022-11-24T20:16:53.131Z,100223.60
2022-11-24T20:21:56.118Z,100226.80
2022-11-24T20:27:00.286Z,100235.00
2022-11-24T20:32:03.327Z,100229.00
2022-11-24T20:37:13.314Z,100237.20
2022-11-24T20:42:16.306Z,100240.60
2022-11-24T20:47:19.273Z,100252.80
2022-11-24T20:52:22.258Z,100247.20
2022-11-24T20:57:25.215Z,100246.20
2022-11-24T21:02:28.257Z,100248.00
2022-11-24T21:07:31.409Z,100260.80
2022-11-24T21:12:34.351Z,100265.60
2022-11-24T21:17:37.224Z,100268.00
2022-11-24T21:22:40.870Z,100268.00
2022-11-24T21:27:43.757Z,100267.60
2022-11-24T21:32:46.805Z,100271.20
2022-11-24T21:37:49.755Z,100275.20
2022-11-24T21:42:52.802Z,100272.60
2022-11-24T21:48:05.322Z,100272.00
2022-11-24T21:53:09.670Z,100277.60
2022-11-24T21:58:12.614Z,100276.40
2022-11-24T22:03:15.831Z,100263.20
2022-11-24T22:08:18.828Z,100262.20
2022-11-24T22:13:21.774Z,100265.80
2022-11-24T22:18:24.633Z,100264.60
2022-11-24T22:23:27.507Z,100272.80
2022-11-24T22:28:33.264Z,100279.40
2022-11-24T22:33:36.385Z,100277.80
2022-11-24T22:38:40.201Z,100290.00
2022-11-24T22:43:45.421Z,100296.80
2022-11-24T22:48:50.358Z,100292.00
2022-11-24T22:54:00.271Z,100295.40
2022-11-24T22:59:04.757Z,100309.80
2022-11-24T23:04:07.870Z,100312.20
2022-11-24T23:09:12.123Z,100307.20
2022-11-24T23:14:16.153Z,100311.60
2022-11-24T23:19:19.324Z,100307.00
2022-11-24T23:24:22.289Z,100305.20
2022-11-24T23:29:25.370Z,100305.60
2022-11-24T23:34:28.338Z,100302.40
2022-11-24T23:39:31.313Z,100303.20
2022-11-24T23:44:34.438Z,100296.80
2022-11-24T23:49:38.170Z,100285.80
2022-11-24T23:54:41.066Z,100287.80
2022-11-24T23:59:44.064Z,100286.20
